Accueil
METAR-TAF:

METAR-TAF

Aéroports :

Londres, Angleterre

Aéroport de Londres-City

latitude: 51-30N, longitude: 000-03E, altitude: 5 m

Observation

Le bulletin a été fait il y a 18 minutes, à 23:50 UTC
Vent 13 kt de est
Température 17°C
Humidité 82%
Pression 1015 hPa
Visibilité 10 km ou plus
pluie faible

METAR: EGLC 282350Z AUTO 08013KT 9999 -RA //////TCU 17/14 Q1015

Heure: 01:08 (00:08 UTC)

Prévision

Le bulletin a été fait il y a 7 heures et 9 minutes, à 16:59 UTC
Prévision valable du 28 à 18 UTC au 28 à 21 UTC
Vent 8 kt de est
Visibilité 10 km ou plus
Quelques nuages à une hauteur de 4500 ft
Probabilité 30% :
Temporairement
du 28 à 18 UTC au 28 à 21 UTC
Visibilité: 7000 m
averses de pluie

TAF: EGLC 281659Z 2818/2821 10008KT 9999 FEW045 PROB30 TEMPO 2818/2821 7000 SHRA

Observations et prévisions météorologiques de plus de 4000 aéroports (messages METAR et TAF).

Les stations disponibles sont représentées par des disques jaunes et rouges sur la carte.

Passer la souris dessus pour voir le nom de la station.

Cliquer dessus pour voir les observations et prévisions météorologiques.

Pour changer de carte: cliquez sur les boutons verts avec une croix noire pour zoomer, sur le bouton vert avec un tiret pour effectuer un zoom arrière, ou sur les flèches vertes pour les cartes adjacentes.


METAR-TAF: